Time;durP1;ratioP1;P1;durP2;ratioP2;P2;SDS_P1;SDS_P2;PMS_P1;PMS_P2;Temp;Humidity;BMP_temperature;BMP_pressure;BME280_temperature;BME280_humidity;BME280_pressure;Samples;Min_cycle;Max_cycle;Signal;HPM_P1;HPM_P2
2023/07/15 00:03:40;;;;;;;4.13;2.75;;;;;;;;;;13043324;22;20776;-82
2023/07/15 00:08:44;;;;;;;4.20;2.60;;;;;;;;;;13042514;22;20497;-82
2023/07/15 00:13:47;;;;;;;4.05;2.85;;;;;;;;;;13042638;22;20361;-82
2023/07/15 00:18:49;;;;;;;5.25;2.78;;;;;;;;;;13042829;22;20430;-82
2023/07/15 00:23:56;;;;;;;3.72;2.40;;;;;;;;;;13043000;22;20821;-82
2023/07/15 00:28:58;;;;;;;4.13;2.33;;;;;;;;;;13042958;22;20381;-82
2023/07/15 00:34:01;;;;;;;3.90;2.43;;;;;;;;;;13045116;22;20755;-82
2023/07/15 00:39:05;;;;;;;4.07;2.28;;;;;;;;;;13049536;22;20841;-82
2023/07/15 00:44:14;;;;;;;3.40;2.30;;;;;;;;;;13047004;22;20916;-82
2023/07/15 00:49:21;;;;;;;3.80;2.30;;;;;;;;;;13045053;22;20738;-82
2023/07/15 00:54:24;;;;;;;4.97;2.30;;;;;;;;;;13045174;22;20365;-82
2023/07/15 00:59:26;;;;;;;4.30;2.47;;;;;;;;;;13041597;22;20435;-82
2023/07/15 01:04:30;;;;;;;4.18;2.67;;;;;;;;;;13043156;22;20360;-82
2023/07/15 01:09:33;;;;;;;3.03;2.63;;;;;;;;;;13042895;22;20376;-82
2023/07/15 01:14:36;;;;;;;5.32;3.05;;;;;;;;;;13042527;22;20420;-82
2023/07/15 01:19:39;;;;;;;4.47;3.50;;;;;;;;;;13044754;22;20357;-82
2023/07/15 01:24:43;;;;;;;4.40;3.10;;;;;;;;;;13044513;22;20357;-82
2023/07/15 01:29:46;;;;;;;3.37;2.63;;;;;;;;;;13045832;22;20385;-82
2023/07/15 01:34:48;;;;;;;3.58;2.60;;;;;;;;;;13046401;22;20414;-82
2023/07/15 01:39:52;;;;;;;3.27;2.67;;;;;;;;;;13044748;22;20361;-82
2023/07/15 01:44:55;;;;;;;4.25;2.40;;;;;;;;;;13047917;22;20365;-82
2023/07/15 01:49:57;;;;;;;3.53;2.38;;;;;;;;;;13043131;22;20431;-82
2023/07/15 01:55:01;;;;;;;4.43;2.10;;;;;;;;;;13043278;22;20373;-82
2023/07/15 02:00:07;;;;;;;4.03;2.33;;;;;;;;;;13044325;22;20358;-83
2023/07/15 02:05:10;;;;;;;2.43;1.90;;;;;;;;;;13017029;22;20365;-82
2023/07/15 02:10:14;;;;;;;3.03;1.98;;;;;;;;;;13042146;22;20381;-80
2023/07/15 02:15:16;;;;;;;4.03;2.20;;;;;;;;;;13045074;22;20392;-83
2023/07/15 02:20:19;;;;;;;4.32;2.50;;;;;;;;;;13016269;22;20361;-83
2023/07/15 02:25:23;;;;;;;3.30;2.50;;;;;;;;;;13042790;22;20426;-82
2023/07/15 02:30:26;;;;;;;4.80;2.40;;;;;;;;;;13044004;22;20446;-83
2023/07/15 02:35:29;;;;;;;3.97;2.10;;;;;;;;;;13044141;22;20361;-82
2023/07/15 02:40:33;;;;;;;4.18;2.20;;;;;;;;;;13042234;22;20369;-83
2023/07/15 02:45:35;;;;;;;2.67;2.03;;;;;;;;;;13045763;22;20365;-82
2023/07/15 02:50:37;;;;;;;2.10;1.90;;;;;;;;;;13042091;22;20376;-83
2023/07/15 02:55:41;;;;;;;3.05;2.00;;;;;;;;;;13042716;22;20373;-83
2023/07/15 03:00:43;;;;;;;5.75;2.15;;;;;;;;;;13042759;22;20828;-83
2023/07/15 03:05:47;;;;;;;3.83;2.22;;;;;;;;;;13043742;22;20929;-83
2023/07/15 03:10:50;;;;;;;5.63;3.30;;;;;;;;;;13043830;22;20381;-83
2023/07/15 03:15:53;;;;;;;5.78;3.25;;;;;;;;;;13043118;22;20361;-82
2023/07/15 03:20:56;;;;;;;6.32;3.90;;;;;;;;;;13041454;22;20421;-83
2023/07/15 03:25:59;;;;;;;5.13;3.73;;;;;;;;;;13041715;22;20365;-83
2023/07/15 03:31:02;;;;;;;6.82;4.43;;;;;;;;;;13043497;22;20414;-83
2023/07/15 03:36:04;;;;;;;8.33;5.00;;;;;;;;;;13041748;22;20365;-83
2023/07/15 03:41:08;;;;;;;9.10;6.95;;;;;;;;;;13040782;22;20357;-82
2023/07/15 03:46:12;;;;;;;8.10;5.90;;;;;;;;;;13041719;22;20369;-82
2023/07/15 03:51:15;;;;;;;7.70;5.43;;;;;;;;;;13045727;22;20454;-83
2023/07/15 03:56:18;;;;;;;7.90;5.88;;;;;;;;;;13042862;22;20365;-82
2023/07/15 04:01:20;;;;;;;7.22;5.60;;;;;;;;;;13042770;22;20381;-83
2023/07/15 04:06:23;;;;;;;8.38;5.78;;;;;;;;;;13043531;22;20361;-83
2023/07/15 04:11:26;;;;;;;7.83;5.57;;;;;;;;;;13041560;22;20381;-83
2023/07/15 04:16:30;;;;;;;9.48;5.60;;;;;;;;;;13042250;22;20418;-82
2023/07/15 04:21:32;;;;;;;7.57;5.57;;;;;;;;;;13042923;22;20361;-83
2023/07/15 04:26:36;;;;;;;7.47;5.50;;;;;;;;;;13042280;22;20364;-82
2023/07/15 04:31:39;;;;;;;9.45;5.53;;;;;;;;;;13042624;22;20435;-82
2023/07/15 04:36:41;;;;;;;9.35;4.80;;;;;;;;;;13041653;22;20443;-82
2023/07/15 04:41:45;;;;;;;7.13;4.50;;;;;;;;;;13040891;22;20858;-83
2023/07/15 04:46:47;;;;;;;6.82;3.80;;;;;;;;;;13041868;22;20365;-83
2023/07/15 04:51:50;;;;;;;5.00;3.22;;;;;;;;;;13043758;22;20414;-83
2023/07/15 04:56:53;;;;;;;4.97;3.13;;;;;;;;;;13044054;22;20372;-82
2023/07/15 05:01:56;;;;;;;4.40;3.22;;;;;;;;;;13041981;22;20399;-82
2023/07/15 05:06:58;;;;;;;4.40;2.92;;;;;;;;;;13043199;22;20415;-82
2023/07/15 05:12:01;;;;;;;3.75;2.97;;;;;;;;;;13040970;22;20419;-82
2023/07/15 05:17:08;;;;;;;3.83;2.90;;;;;;;;;;13041470;22;20845;-82
2023/07/15 05:22:10;;;;;;;5.63;2.40;;;;;;;;;;13045727;22;20422;-82
2023/07/15 05:27:14;;;;;;;3.90;2.70;;;;;;;;;;13045513;22;20426;-82
2023/07/15 05:32:16;;;;;;;4.13;2.70;;;;;;;;;;13045937;22;20365;-81
2023/07/15 05:37:18;;;;;;;4.93;3.20;;;;;;;;;;13045422;22;21030;-82
2023/07/15 05:42:22;;;;;;;3.13;2.50;;;;;;;;;;13044247;22;20423;-83
2023/07/15 05:47:24;;;;;;;3.50;2.53;;;;;;;;;;13044005;22;20365;-82
2023/07/15 05:52:27;;;;;;;3.30;2.30;;;;;;;;;;13067633;22;20430;-83
2023/07/15 05:57:30;;;;;;;3.60;2.10;;;;;;;;;;13051852;22;20369;-82
2023/07/15 06:02:32;;;;;;;3.55;2.10;;;;;;;;;;13046676;22;20721;-83
2023/07/15 06:07:35;;;;;;;5.28;2.25;;;;;;;;;;13043728;22;20391;-82
2023/07/15 06:12:38;;;;;;;3.27;1.90;;;;;;;;;;13044310;22;20817;-83
2023/07/15 06:17:41;;;;;;;2.58;1.73;;;;;;;;;;13043408;22;20357;-83
2023/07/15 06:22:43;;;;;;;3.33;1.60;;;;;;;;;;13045087;22;20357;-83
2023/07/15 06:27:47;;;;;;;3.63;2.17;;;;;;;;;;13044867;22;20426;-82
2023/07/15 06:32:50;;;;;;;5.55;2.00;;;;;;;;;;13043419;22;20916;-83
2023/07/15 06:37:52;;;;;;;2.97;2.30;;;;;;;;;;13044704;22;20353;-82
2023/07/15 06:42:56;;;;;;;4.85;1.85;;;;;;;;;;13043341;22;20399;-83
2023/07/15 06:47:58;;;;;;;4.57;2.30;;;;;;;;;;13043835;22;20517;-83
2023/07/15 06:53:00;;;;;;;3.03;1.58;;;;;;;;;;13043926;22;20391;-82
2023/07/15 06:58:06;;;;;;;2.95;1.58;;;;;;;;;;13044093;22;20384;-82
2023/07/15 07:03:08;;;;;;;2.95;1.52;;;;;;;;;;13045642;22;20361;-82
2023/07/15 07:08:10;;;;;;;2.17;1.70;;;;;;;;;;13044475;22;20904;-83
2023/07/15 07:13:14;;;;;;;3.38;1.80;;;;;;;;;;13042951;22;20415;-82
2023/07/15 07:18:16;;;;;;;3.65;1.70;;;;;;;;;;13039484;22;20438;-80
2023/07/15 07:23:18;;;;;;;2.57;1.63;;;;;;;;;;13034672;22;20446;-81
2023/07/15 07:28:24;;;;;;;2.63;1.60;;;;;;;;;;13038225;22;20381;-82
2023/07/15 07:33:26;;;;;;;4.30;2.00;;;;;;;;;;13039120;22;20697;-82
2023/07/15 07:38:29;;;;;;;2.40;1.80;;;;;;;;;;13059594;22;20365;-83
2023/07/15 07:43:32;;;;;;;3.75;1.55;;;;;;;;;;13037876;22;20434;-82
2023/07/15 07:48:35;;;;;;;4.00;2.00;;;;;;;;;;13037775;22;20910;-83
2023/07/15 07:53:37;;;;;;;3.83;1.77;;;;;;;;;;13037746;22;20436;-82
2023/07/15 07:58:41;;;;;;;4.15;2.25;;;;;;;;;;13036667;22;20391;-82
2023/07/15 08:03:43;;;;;;;5.80;1.80;;;;;;;;;;13038207;22;20365;-82
2023/07/15 08:08:46;;;;;;;2.20;1.77;;;;;;;;;;13037115;22;20372;-82
2023/07/15 08:13:50;;;;;;;2.65;1.90;;;;;;;;;;13035543;22;20441;-82
2023/07/15 08:18:52;;;;;;;2.83;2.00;;;;;;;;;;13036973;22;20423;-79
2023/07/15 08:23:55;;;;;;;3.20;1.90;;;;;;;;;;13035775;22;20361;-83
2023/07/15 08:28:59;;;;;;;3.03;2.10;;;;;;;;;;13036226;22;20396;-82
2023/07/15 08:34:01;;;;;;;3.40;2.13;;;;;;;;;;13036416;22;20365;-83
2023/07/15 08:39:03;;;;;;;3.85;1.90;;;;;;;;;;13035388;22;20703;-82
2023/07/15 08:44:07;;;;;;;2.92;1.80;;;;;;;;;;13034577;22;20361;-83
2023/07/15 08:49:09;;;;;;;3.77;1.90;;;;;;;;;;13035414;22;20388;-82
2023/07/15 08:54:13;;;;;;;3.50;2.13;;;;;;;;;;13036707;22;20426;-82
2023/07/15 08:59:18;;;;;;;3.00;2.15;;;;;;;;;;13040728;22;20894;-83
2023/07/15 09:04:20;;;;;;;2.30;2.10;;;;;;;;;;13043804;22;20360;-82
2023/07/15 09:09:31;;;;;;;3.38;2.25;;;;;;;;;;13044726;22;20411;-82
2023/07/15 09:14:43;;;;;;;3.47;2.17;;;;;;;;;;13043536;22;20360;-82
2023/07/15 09:19:46;;;;;;;3.25;2.30;;;;;;;;;;13045044;22;20361;-83
2023/07/15 09:24:48;;;;;;;3.03;2.33;;;;;;;;;;13045107;22;20349;-83
2023/07/15 09:29:51;;;;;;;4.07;2.50;;;;;;;;;;13045503;22;20381;-84
2023/07/15 09:34:54;;;;;;;4.13;2.40;;;;;;;;;;13046441;22;20365;-82
2023/07/15 09:39:57;;;;;;;4.10;2.43;;;;;;;;;;13045928;22;20365;-83
2023/07/15 09:45:00;;;;;;;3.45;2.30;;;;;;;;;;13045664;22;20361;-84
2023/07/15 09:50:03;;;;;;;4.20;2.40;;;;;;;;;;13046202;22;20377;-84
2023/07/15 09:55:06;;;;;;;5.77;2.60;;;;;;;;;;13037720;22;20380;-83
2023/07/15 10:00:12;;;;;;;5.00;2.50;;;;;;;;;;13040377;22;20434;-83
2023/07/15 10:05:14;;;;;;;2.40;2.20;;;;;;;;;;13040665;22;20365;-83
2023/07/15 10:10:17;;;;;;;2.80;2.40;;;;;;;;;;13039528;22;20461;-83
2023/07/15 10:15:23;;;;;;;5.20;2.50;;;;;;;;;;13039910;22;20357;-82
2023/07/15 10:20:32;;;;;;;4.60;2.80;;;;;;;;;;13039924;22;20361;-84
2023/07/15 10:25:35;;;;;;;4.50;2.50;;;;;;;;;;13028547;22;20372;-83
2023/07/15 10:30:39;;;;;;;3.40;2.63;;;;;;;;;;13028071;22;20372;-83
2023/07/15 10:35:54;;;;;;;6.65;2.60;;;;;;;;;;13031597;22;20938;-84
2023/07/15 10:40:59;;;;;;;4.72;2.50;;;;;;;;;;13030913;22;20353;-84
2023/07/15 10:46:05;;;;;;;4.85;2.55;;;;;;;;;;13029017;22;20373;-82
2023/07/15 10:51:09;;;;;;;5.60;2.40;;;;;;;;;;13032091;22;20384;-82
2023/07/15 10:56:13;;;;;;;2.67;2.20;;;;;;;;;;13028958;22;20373;-84
2023/07/15 11:01:16;;;;;;;5.35;2.28;;;;;;;;;;13029448;22;20373;-84
2023/07/15 11:06:19;;;;;;;5.93;2.43;;;;;;;;;;13030063;22;20446;-83
2023/07/15 11:11:24;;;;;;;5.77;2.60;;;;;;;;;;13029839;22;20381;-83
2023/07/15 11:16:28;;;;;;;5.53;2.63;;;;;;;;;;13029278;22;20842;-84
2023/07/15 11:21:30;;;;;;;6.80;2.90;;;;;;;;;;13029068;22;20368;-83
2023/07/15 11:26:32;;;;;;;5.27;2.73;;;;;;;;;;13029423;22;20381;-83
2023/07/15 11:31:40;;;;;;;5.57;2.80;;;;;;;;;;13029948;22;20377;-83
2023/07/15 11:36:43;;;;;;;4.63;2.80;;;;;;;;;;13029546;22;20402;-82
2023/07/15 11:41:46;;;;;;;2.95;2.63;;;;;;;;;;13029514;22;21033;-85
2023/07/15 11:46:50;;;;;;;4.93;2.90;;;;;;;;;;13028551;22;20385;-83
2023/07/15 11:51:56;;;;;;;5.93;3.50;;;;;;;;;;13027115;22;20381;-83
2023/07/15 11:56:58;;;;;;;4.35;3.00;;;;;;;;;;13027235;22;20389;-84
2023/07/15 12:02:04;;;;;;;5.70;3.30;;;;;;;;;;13028844;22;20373;-83
2023/07/15 12:07:06;;;;;;;6.40;3.40;;;;;;;;;;13028500;22;20403;-83
2023/07/15 12:12:09;;;;;;;5.77;3.23;;;;;;;;;;13031827;22;20385;-83
2023/07/15 12:17:13;;;;;;;7.35;3.90;;;;;;;;;;13037228;22;20418;-83
2023/07/15 12:22:15;;;;;;;5.10;3.75;;;;;;;;;;13036150;22;20357;-83
2023/07/15 12:27:17;;;;;;;4.13;3.65;;;;;;;;;;13036760;22;20417;-83
2023/07/15 12:32:21;;;;;;;4.47;3.50;;;;;;;;;;13038006;22;20408;-84
2023/07/15 12:37:23;;;;;;;4.60;3.60;;;;;;;;;;13036844;22;20365;-83
2023/07/15 12:42:25;;;;;;;5.87;3.60;;;;;;;;;;13037445;22;20361;-84
2023/07/15 12:47:29;;;;;;;5.35;3.60;;;;;;;;;;13036902;22;20391;-84
2023/07/15 12:52:31;;;;;;;5.63;3.57;;;;;;;;;;13033613;22;20377;-84
2023/07/15 12:57:34;;;;;;;6.80;3.75;;;;;;;;;;13034045;22;20705;-85
2023/07/15 13:02:37;;;;;;;5.10;3.38;;;;;;;;;;13036140;22;20888;-84
2023/07/15 13:07:40;;;;;;;6.70;3.78;;;;;;;;;;13036406;22;20364;-85
2023/07/15 13:12:42;;;;;;;5.65;3.30;;;;;;;;;;13036481;22;20381;-83
2023/07/15 13:17:45;;;;;;;5.50;3.30;;;;;;;;;;13035474;22;20361;-79
2023/07/15 13:22:48;;;;;;;5.63;3.10;;;;;;;;;;13034914;22;20365;-85
2023/07/15 13:27:50;;;;;;;4.50;3.53;;;;;;;;;;13036779;22;20361;-85
2023/07/15 13:32:54;;;;;;;5.22;3.80;;;;;;;;;;13035925;22;20864;-85
2023/07/15 13:37:56;;;;;;;5.90;3.80;;;;;;;;;;13037647;22;20414;-85
2023/07/15 13:42:58;;;;;;;5.35;3.70;;;;;;;;;;13039391;22;20418;-85
2023/07/15 13:48:02;;;;;;;9.68;3.75;;;;;;;;;;13042127;22;20373;-85
2023/07/15 13:53:04;;;;;;;5.30;3.20;;;;;;;;;;13040275;22;20434;-85
2023/07/15 13:58:06;;;;;;;4.00;3.20;;;;;;;;;;13039290;22;20372;-85
2023/07/15 14:03:10;;;;;;;5.73;3.73;;;;;;;;;;13061188;22;20445;-85
2023/07/15 14:08:12;;;;;;;6.23;3.27;;;;;;;;;;13041013;22;20400;-85
2023/07/15 14:13:15;;;;;;;5.90;3.38;;;;;;;;;;13039886;22;20381;-85
2023/07/15 14:18:18;;;;;;;5.43;3.20;;;;;;;;;;13039621;22;20361;-85
2023/07/15 14:23:21;;;;;;;4.77;3.27;;;;;;;;;;13041153;22;20376;-86
2023/07/15 14:28:23;;;;;;;4.70;3.35;;;;;;;;;;13039345;22;20404;-85
2023/07/15 14:33:27;;;;;;;6.47;3.40;;;;;;;;;;13039344;22;20697;-85
2023/07/15 14:38:29;;;;;;;6.47;3.53;;;;;;;;;;13040573;22;20410;-85
2023/07/15 14:43:31;;;;;;;5.57;3.85;;;;;;;;;;13039203;22;20898;-85
2023/07/15 14:48:35;;;;;;;4.43;3.70;;;;;;;;;;13039571;22;20439;-85
2023/07/15 14:53:37;;;;;;;5.47;4.07;;;;;;;;;;13038385;22;20930;-85
2023/07/15 14:58:40;;;;;;;4.63;3.60;;;;;;;;;;13038339;22;20369;-85
2023/07/15 15:03:43;;;;;;;7.40;3.92;;;;;;;;;;13039426;22;20395;-85
2023/07/15 15:08:45;;;;;;;5.22;4.10;;;;;;;;;;13040579;22;20361;-85
2023/07/15 15:13:49;;;;;;;7.33;4.00;;;;;;;;;;13038141;22;20442;-85
2023/07/15 15:18:52;;;;;;;7.32;4.22;;;;;;;;;;13039251;22;20933;-85
2023/07/15 15:23:55;;;;;;;5.80;3.88;;;;;;;;;;13038589;22;20361;-86
2023/07/15 15:28:59;;;;;;;6.43;3.90;;;;;;;;;;13038776;22;20357;-85
2023/07/15 15:34:02;;;;;;;5.93;3.75;;;;;;;;;;13038213;22;20759;-84
2023/07/15 15:39:05;;;;;;;6.18;4.20;;;;;;;;;;13038911;22;20902;-84
2023/07/15 15:44:07;;;;;;;6.07;4.20;;;;;;;;;;13037202;22;20740;-84
2023/07/15 15:49:11;;;;;;;4.80;3.90;;;;;;;;;;13038839;22;20844;-84
2023/07/15 15:54:13;;;;;;;6.32;4.00;;;;;;;;;;13037906;22;20385;-85
2023/07/15 15:59:17;;;;;;;8.27;4.07;;;;;;;;;;13038246;22;20426;-86
2023/07/15 16:04:20;;;;;;;5.13;3.70;;;;;;;;;;13037330;22;20740;-84
2023/07/15 16:09:24;;;;;;;4.33;3.77;;;;;;;;;;13037643;22;20868;-84
2023/07/15 16:14:27;;;;;;;7.05;4.00;;;;;;;;;;13038265;22;20377;-84
2023/07/15 16:19:30;;;;;;;5.83;4.20;;;;;;;;;;13039464;22;20361;-84
2023/07/15 16:24:33;;;;;;;7.30;4.27;;;;;;;;;;13036831;22;20373;-84
2023/07/15 16:29:35;;;;;;;6.18;3.70;;;;;;;;;;13037876;22;20365;-84
2023/07/15 16:34:38;;;;;;;5.17;4.23;;;;;;;;;;13037094;22;20381;-83
2023/07/15 16:39:41;;;;;;;7.93;3.83;;;;;;;;;;13037398;22;20364;-84
2023/07/15 16:44:44;;;;;;;7.20;4.28;;;;;;;;;;13037761;22;20365;-84
2023/07/15 16:49:48;;;;;;;6.93;3.97;;;;;;;;;;13036606;22;20387;-84
2023/07/15 16:54:50;;;;;;;6.55;3.72;;;;;;;;;;13036469;22;20384;-84
2023/07/15 16:59:53;;;;;;;7.10;4.15;;;;;;;;;;13038646;22;20399;-84
2023/07/15 17:04:56;;;;;;;7.20;4.00;;;;;;;;;;13036818;22;20430;-84
2023/07/15 17:09:59;;;;;;;8.47;4.13;;;;;;;;;;13036863;22;20361;-85
2023/07/15 17:15:01;;;;;;;5.07;3.50;;;;;;;;;;13039005;22;20384;-85
2023/07/15 17:20:07;;;;;;;6.97;3.58;;;;;;;;;;13041421;22;20361;-85
2023/07/15 17:25:09;;;;;;;6.40;4.32;;;;;;;;;;13040172;22;20748;-85
2023/07/15 17:30:12;;;;;;;8.10;3.88;;;;;;;;;;13042563;22;20345;-84
2023/07/15 17:35:16;;;;;;;9.18;3.60;;;;;;;;;;13042698;22;20454;-84
2023/07/15 17:40:18;;;;;;;5.80;3.67;;;;;;;;;;13040073;22;20430;-84
2023/07/15 17:45:20;;;;;;;4.60;3.55;;;;;;;;;;13040010;22;20360;-84
2023/07/15 17:50:24;;;;;;;8.37;4.07;;;;;;;;;;13039772;22;20365;-84
2023/07/15 17:55:26;;;;;;;6.55;3.60;;;;;;;;;;13039183;22;20381;-84
2023/07/15 18:00:29;;;;;;;8.27;3.73;;;;;;;;;;13041068;22;20841;-85
2023/07/15 18:05:32;;;;;;;7.68;3.72;;;;;;;;;;13041745;22;20414;-84
2023/07/15 18:10:35;;;;;;;8.00;3.45;;;;;;;;;;13040459;22;20361;-84
2023/07/15 18:15:38;;;;;;;9.83;3.93;;;;;;;;;;13039890;22;20857;-84
2023/07/15 18:20:41;;;;;;;8.53;3.57;;;;;;;;;;13040981;22;20411;-84
2023/07/15 18:25:44;;;;;;;9.88;4.43;;;;;;;;;;13039877;22;20429;-84
2023/07/15 18:30:46;;;;;;;8.20;3.27;;;;;;;;;;13038979;22;20898;-84
2023/07/15 18:35:50;;;;;;;6.35;3.50;;;;;;;;;;13041691;22;20534;-84
2023/07/15 18:40:52;;;;;;;5.95;3.80;;;;;;;;;;13039103;22;20365;-84
2023/07/15 18:45:54;;;;;;;6.97;3.27;;;;;;;;;;13039914;22;20361;-84
2023/07/15 18:50:58;;;;;;;6.87;3.33;;;;;;;;;;13039655;22;20406;-84
2023/07/15 18:56:00;;;;;;;6.30;3.27;;;;;;;;;;13038609;22;20381;-84
2023/07/15 19:01:03;;;;;;;8.13;3.40;;;;;;;;;;13038903;22;20369;-84
2023/07/15 19:06:06;;;;;;;6.95;3.70;;;;;;;;;;13040144;22;20361;-84
2023/07/15 19:11:09;;;;;;;5.33;3.57;;;;;;;;;;13037603;22;20819;-84
2023/07/15 19:16:11;;;;;;;6.15;3.90;;;;;;;;;;13039132;22;20377;-84
2023/07/15 19:21:14;;;;;;;10.13;4.32;;;;;;;;;;13039661;22;20365;-84
2023/07/15 19:26:17;;;;;;;5.00;3.50;;;;;;;;;;13038443;22;20357;-85
2023/07/15 19:31:19;;;;;;;7.63;3.50;;;;;;;;;;13037769;22;20732;-85
2023/07/15 19:36:23;;;;;;;6.32;3.70;;;;;;;;;;13038214;22;20373;-85
2023/07/15 19:41:25;;;;;;;8.67;4.67;;;;;;;;;;13037443;22;20357;-84
2023/07/15 19:46:28;;;;;;;7.10;4.03;;;;;;;;;;13038003;22;20368;-85
2023/07/15 19:51:31;;;;;;;9.20;3.80;;;;;;;;;;13038895;22;20427;-85
2023/07/15 19:56:33;;;;;;;7.40;4.80;;;;;;;;;;13038484;22;20365;-84
2023/07/15 20:01:36;;;;;;;5.90;4.30;;;;;;;;;;13037989;22;20623;-84
2023/07/15 20:06:39;;;;;;;11.05;5.82;;;;;;;;;;13036532;22;20395;-85
2023/07/15 20:11:42;;;;;;;7.70;4.27;;;;;;;;;;13038078;22;20361;-84
2023/07/15 20:16:44;;;;;;;7.73;4.10;;;;;;;;;;13039000;22;20361;-85
2023/07/15 20:21:48;;;;;;;8.03;5.00;;;;;;;;;;13034255;22;20633;-85
2023/07/15 20:26:50;;;;;;;9.83;5.00;;;;;;;;;;13038230;22;20357;-84
2023/07/15 20:31:52;;;;;;;9.83;4.93;;;;;;;;;;13037415;22;20434;-85
2023/07/15 20:36:56;;;;;;;7.95;4.95;;;;;;;;;;13037812;22;20422;-85
2023/07/15 20:41:58;;;;;;;9.67;5.73;;;;;;;;;;13036632;22;20361;-85
2023/07/15 20:47:01;;;;;;;14.00;7.00;;;;;;;;;;13036278;22;20833;-84
2023/07/15 20:52:06;;;;;;;11.35;6.68;;;;;;;;;;13040221;22;20442;-85
2023/07/15 20:57:10;;;;;;;11.13;6.15;;;;;;;;;;13041232;22;20376;-85
2023/07/15 21:02:12;;;;;;;10.35;6.30;;;;;;;;;;13042049;22;20361;-84
2023/07/15 21:07:16;;;;;;;7.93;5.95;;;;;;;;;;13041330;22;20390;-85
2023/07/15 21:12:20;;;;;;;9.77;6.33;;;;;;;;;;13040304;22;20462;-84
2023/07/15 21:17:23;;;;;;;12.33;6.80;;;;;;;;;;13042511;22;20364;-85
2023/07/15 21:22:26;;;;;;;10.67;6.40;;;;;;;;;;13041028;22;20387;-86
2023/07/15 21:27:29;;;;;;;9.60;6.22;;;;;;;;;;13040256;22;20438;-85
2023/07/15 21:32:31;;;;;;;10.95;5.90;;;;;;;;;;13040431;22;20840;-85
2023/07/15 21:37:35;;;;;;;11.43;7.32;;;;;;;;;;13041203;22;20369;-85
2023/07/15 21:42:37;;;;;;;11.38;6.57;;;;;;;;;;13040604;22;20395;-85
2023/07/15 21:47:39;;;;;;;12.18;6.50;;;;;;;;;;13041129;22;20357;-85
2023/07/15 21:52:43;;;;;;;10.93;6.30;;;;;;;;;;13032156;22;20706;-85
2023/07/15 21:57:45;;;;;;;9.43;7.40;;;;;;;;;;13034972;22;20932;-86
2023/07/15 22:02:48;;;;;;;15.23;9.03;;;;;;;;;;13035175;22;20752;-85
2023/07/15 22:07:51;;;;;;;9.27;6.77;;;;;;;;;;13034797;22;20418;-85
2023/07/15 22:12:53;;;;;;;12.40;7.60;;;;;;;;;;13035589;22;20402;-86
2023/07/15 22:17:56;;;;;;;8.90;6.00;;;;;;;;;;13035570;22;20373;-85
2023/07/15 22:23:00;;;;;;;10.45;6.90;;;;;;;;;;13034371;22;20364;-85
2023/07/15 22:28:02;;;;;;;10.00;6.57;;;;;;;;;;13036010;22;20430;-86
2023/07/15 22:33:04;;;;;;;8.93;6.65;;;;;;;;;;13036129;22;20373;-85
2023/07/15 22:38:08;;;;;;;12.05;7.57;;;;;;;;;;13036903;22;20376;-85
2023/07/15 22:43:10;;;;;;;12.30;7.90;;;;;;;;;;13035465;22;20905;-86
2023/07/15 22:48:13;;;;;;;13.07;8.07;;;;;;;;;;13039380;22;20435;-86
2023/07/15 22:53:16;;;;;;;14.30;9.10;;;;;;;;;;13045187;22;20434;-85
2023/07/15 22:58:19;;;;;;;15.93;8.93;;;;;;;;;;13043723;22;20361;-86
2023/07/15 23:03:21;;;;;;;13.55;8.90;;;;;;;;;;13017339;22;20373;-86
2023/07/15 23:08:25;;;;;;;14.13;10.32;;;;;;;;;;13043504;22;20391;-85
2023/07/15 23:13:27;;;;;;;16.30;10.97;;;;;;;;;;13043115;22;20926;-86
2023/07/15 23:18:29;;;;;;;16.13;11.07;;;;;;;;;;13042713;22;20947;-85
2023/07/15 23:23:33;;;;;;;15.80;11.10;;;;;;;;;;13043182;22;20422;-86
2023/07/15 23:28:35;;;;;;;17.10;11.25;;;;;;;;;;13044653;22;20678;-85
2023/07/15 23:33:39;;;;;;;18.15;11.85;;;;;;;;;;13043397;22;20442;-86
2023/07/15 23:38:42;;;;;;;17.73;11.30;;;;;;;;;;13043656;22;20405;-86
2023/07/15 23:43:45;;;;;;;15.65;10.98;;;;;;;;;;13042920;22;20673;-86
2023/07/15 23:48:47;;;;;;;18.08;11.65;;;;;;;;;;13044152;22;20391;-86
2023/07/15 23:53:54;;;;;;;17.35;10.90;;;;;;;;;;13042974;22;20380;-86
2023/07/15 23:58:56;;;;;;;13.93;10.83;;;;;;;;;;13039249;22;20953;-85
